sensor_id;sensor_type;location;lat;lon;timestamp;temperature;humidity
51029;DHT22;37054;52.054;8.600;2022-11-15T00:02:10;16.10;48.90
51029;DHT22;37054;52.054;8.600;2022-11-15T00:04:36;16.20;48.80
51029;DHT22;37054;52.054;8.600;2022-11-15T00:07:01;16.20;48.90
51029;DHT22;37054;52.054;8.600;2022-11-15T00:09:27;16.20;48.90
51029;DHT22;37054;52.054;8.600;2022-11-15T00:11:53;16.30;48.80
51029;DHT22;37054;52.054;8.600;2022-11-15T00:14:18;16.30;48.70
51029;DHT22;37054;52.054;8.600;2022-11-15T00:16:44;16.30;48.80
51029;DHT22;37054;52.054;8.600;2022-11-15T00:19:10;16.30;48.70
51029;DHT22;37054;52.054;8.600;2022-11-15T00:21:35;16.40;48.80
51029;DHT22;37054;52.054;8.600;2022-11-15T00:24:01;16.40;48.90
51029;DHT22;37054;52.054;8.600;2022-11-15T00:26:26;16.50;49.00
51029;DHT22;37054;52.054;8.600;2022-11-15T00:28:52;16.50;49.00
51029;DHT22;37054;52.054;8.600;2022-11-15T00:31:18;16.50;48.90
51029;DHT22;37054;52.054;8.600;2022-11-15T00:33:44;16.60;49.00
51029;DHT22;37054;52.054;8.600;2022-11-15T00:36:10;16.60;49.00
51029;DHT22;37054;52.054;8.600;2022-11-15T00:38:36;16.70;48.90
51029;DHT22;37054;52.054;8.600;2022-11-15T00:41:04;16.70;48.90
51029;DHT22;37054;52.054;8.600;2022-11-15T00:43:31;16.70;49.00
51029;DHT22;37054;52.054;8.600;2022-11-15T00:45:56;16.70;49.00
51029;DHT22;37054;52.054;8.600;2022-11-15T00:48:22;16.80;48.80
51029;DHT22;37054;52.054;8.600;2022-11-15T00:50:48;16.80;48.80
51029;DHT22;37054;52.054;8.600;2022-11-15T00:53:13;16.70;48.90
51029;DHT22;37054;52.054;8.600;2022-11-15T00:55:39;16.80;49.10
51029;DHT22;37054;52.054;8.600;2022-11-15T00:58:04;16.80;49.00
51029;DHT22;37054;52.054;8.600;2022-11-15T01:00:30;16.80;49.10
51029;DHT22;37054;52.054;8.600;2022-11-15T01:02:55;16.90;49.10
51029;DHT22;37054;52.054;8.600;2022-11-15T01:05:21;16.90;49.20
51029;DHT22;37054;52.054;8.600;2022-11-15T01:07:46;16.90;49.20
51029;DHT22;37054;52.054;8.600;2022-11-15T01:10:12;17.00;49.10
51029;DHT22;37054;52.054;8.600;2022-11-15T01:12:40;17.00;49.20
51029;DHT22;37054;52.054;8.600;2022-11-15T01:15:05;17.00;49.30
51029;DHT22;37054;52.054;8.600;2022-11-15T01:17:31;17.00;49.50
51029;DHT22;37054;52.054;8.600;2022-11-15T01:19:56;17.00;49.60
51029;DHT22;37054;52.054;8.600;2022-11-15T01:22:22;17.00;49.70
51029;DHT22;37054;52.054;8.600;2022-11-15T01:24:50;17.10;49.80
51029;DHT22;37054;52.054;8.600;2022-11-15T01:27:16;17.10;49.90
51029;DHT22;37054;52.054;8.600;2022-11-15T01:29:41;17.20;49.90
51029;DHT22;37054;52.054;8.600;2022-11-15T01:32:07;17.20;50.00
51029;DHT22;37054;52.054;8.600;2022-11-15T01:34:33;17.30;50.00
51029;DHT22;37054;52.054;8.600;2022-11-15T01:36:58;17.30;50.00
51029;DHT22;37054;52.054;8.600;2022-11-15T01:39:24;17.30;50.00
51029;DHT22;37054;52.054;8.600;2022-11-15T01:41:50;17.40;50.00
51029;DHT22;37054;52.054;8.600;2022-11-15T01:44:34;17.50;50.00
51029;DHT22;37054;52.054;8.600;2022-11-15T01:47:03;17.50;50.00
51029;DHT22;37054;52.054;8.600;2022-11-15T01:49:30;17.60;50.10
51029;DHT22;37054;52.054;8.600;2022-11-15T01:51:56;17.70;50.00
51029;DHT22;37054;52.054;8.600;2022-11-15T01:54:22;17.70;50.10
51029;DHT22;37054;52.054;8.600;2022-11-15T01:56:50;17.70;50.10
51029;DHT22;37054;52.054;8.600;2022-11-15T01:59:17;17.70;50.20
51029;DHT22;37054;52.054;8.600;2022-11-15T02:01:43;17.70;50.20
51029;DHT22;37054;52.054;8.600;2022-11-15T02:04:13;17.70;50.20
51029;DHT22;37054;52.054;8.600;2022-11-15T02:06:39;17.60;50.20
51029;DHT22;37054;52.054;8.600;2022-11-15T02:09:05;17.50;50.30
51029;DHT22;37054;52.054;8.600;2022-11-15T02:11:31;17.40;50.40
51029;DHT22;37054;52.054;8.600;2022-11-15T02:13:56;17.30;50.70
51029;DHT22;37054;52.054;8.600;2022-11-15T02:16:33;17.30;50.90
51029;DHT22;37054;52.054;8.600;2022-11-15T02:21:28;17.30;51.30
51029;DHT22;37054;52.054;8.600;2022-11-15T02:34:55;17.60;51.50
51029;DHT22;37054;52.054;8.600;2022-11-15T02:43:00;17.70;51.70
51029;DHT22;37054;52.054;8.600;2022-11-15T02:45:48;17.70;51.70
51029;DHT22;37054;52.054;8.600;2022-11-15T02:48:15;17.80;51.80
51029;DHT22;37054;52.054;8.600;2022-11-15T02:50:42;17.80;51.80
51029;DHT22;37054;52.054;8.600;2022-11-15T02:53:08;17.80;51.80
51029;DHT22;37054;52.054;8.600;2022-11-15T02:55:34;17.80;51.80
51029;DHT22;37054;52.054;8.600;2022-11-15T03:00:30;17.80;51.90
51029;DHT22;37054;52.054;8.600;2022-11-15T03:05:50;17.90;52.00
51029;DHT22;37054;52.054;8.600;2022-11-15T03:11:09;17.90;52.20
51029;DHT22;37054;52.054;8.600;2022-11-15T03:16:07;17.90;52.30
51029;DHT22;37054;52.054;8.600;2022-11-15T03:18:38;17.90;52.30
51029;DHT22;37054;52.054;8.600;2022-11-15T03:21:06;18.00;52.30
51029;DHT22;37054;52.054;8.600;2022-11-15T03:23:32;17.90;52.30
51029;DHT22;37054;52.054;8.600;2022-11-15T03:25:59;18.00;52.40
51029;DHT22;37054;52.054;8.600;2022-11-15T03:28:28;18.00;52.40
51029;DHT22;37054;52.054;8.600;2022-11-15T03:30:57;18.00;52.40
51029;DHT22;37054;52.054;8.600;2022-11-15T03:33:23;18.00;52.50
51029;DHT22;37054;52.054;8.600;2022-11-15T03:35:49;18.00;52.50
51029;DHT22;37054;52.054;8.600;2022-11-15T03:38:22;18.00;52.50
51029;DHT22;37054;52.054;8.600;2022-11-15T03:43:22;18.10;52.40
51029;DHT22;37054;52.054;8.600;2022-11-15T03:46:06;18.10;52.40
51029;DHT22;37054;52.054;8.600;2022-11-15T03:48:54;18.20;52.40
51029;DHT22;37054;52.054;8.600;2022-11-15T03:51:18;18.20;52.40
51029;DHT22;37054;52.054;8.600;2022-11-15T03:53:45;18.20;52.30
51029;DHT22;37054;52.054;8.600;2022-11-15T03:56:10;18.20;52.40
51029;DHT22;37054;52.054;8.600;2022-11-15T03:58:36;18.20;52.40
51029;DHT22;37054;52.054;8.600;2022-11-15T04:01:01;18.20;52.40
51029;DHT22;37054;52.054;8.600;2022-11-15T04:03:27;18.20;52.40
51029;DHT22;37054;52.054;8.600;2022-11-15T04:05:52;18.30;52.30
51029;DHT22;37054;52.054;8.600;2022-11-15T04:08:18;18.30;52.20
51029;DHT22;37054;52.054;8.600;2022-11-15T04:10:43;18.30;52.10
51029;DHT22;37054;52.054;8.600;2022-11-15T04:13:09;18.30;52.10
51029;DHT22;37054;52.054;8.600;2022-11-15T04:15:34;18.30;52.10
51029;DHT22;37054;52.054;8.600;2022-11-15T04:18:00;18.30;52.10
51029;DHT22;37054;52.054;8.600;2022-11-15T04:20:27;18.30;52.10
51029;DHT22;37054;52.054;8.600;2022-11-15T04:23:16;18.30;52.10
51029;DHT22;37054;52.054;8.600;2022-11-15T04:26:21;18.30;52.10
51029;DHT22;37054;52.054;8.600;2022-11-15T04:28:46;18.30;52.20
51029;DHT22;37054;52.054;8.600;2022-11-15T04:31:30;18.30;52.10
51029;DHT22;37054;52.054;8.600;2022-11-15T04:33:56;18.30;52.20
51029;DHT22;37054;52.054;8.600;2022-11-15T04:36:21;18.30;52.20
51029;DHT22;37054;52.054;8.600;2022-11-15T04:39:06;18.20;52.20
51029;DHT22;37054;52.054;8.600;2022-11-15T04:41:31;18.20;52.30
51029;DHT22;37054;52.054;8.600;2022-11-15T04:43:57;18.20;52.30
51029;DHT22;37054;52.054;8.600;2022-11-15T04:46:22;18.20;52.30
51029;DHT22;37054;52.054;8.600;2022-11-15T04:48:49;18.20;52.30
51029;DHT22;37054;52.054;8.600;2022-11-15T04:51:14;18.20;52.30
51029;DHT22;37054;52.054;8.600;2022-11-15T04:53:40;18.20;52.30
51029;DHT22;37054;52.054;8.600;2022-11-15T04:56:05;18.20;52.30
51029;DHT22;37054;52.054;8.600;2022-11-15T04:58:31;18.20;52.30
51029;DHT22;37054;52.054;8.600;2022-11-15T05:00:56;18.20;52.20
51029;DHT22;37054;52.054;8.600;2022-11-15T05:03:22;18.20;52.20
51029;DHT22;37054;52.054;8.600;2022-11-15T05:06:06;18.20;52.20
51029;DHT22;37054;52.054;8.600;2022-11-15T05:08:32;18.20;52.20
51029;DHT22;37054;52.054;8.600;2022-11-15T05:10:57;18.20;52.20
51029;DHT22;37054;52.054;8.600;2022-11-15T05:13:23;18.20;52.20
51029;DHT22;37054;52.054;8.600;2022-11-15T05:15:48;18.20;52.20
51029;DHT22;37054;52.054;8.600;2022-11-15T05:18:14;18.20;52.20
51029;DHT22;37054;52.054;8.600;2022-11-15T05:20:39;18.30;52.10
51029;DHT22;37054;52.054;8.600;2022-11-15T05:23:05;18.20;52.10
51029;DHT22;37054;52.054;8.600;2022-11-15T05:25:30;18.20;52.10
51029;DHT22;37054;52.054;8.600;2022-11-15T05:27:56;18.20;52.10
51029;DHT22;37054;52.054;8.600;2022-11-15T05:30:22;18.30;52.10
51029;DHT22;37054;52.054;8.600;2022-11-15T05:32:47;18.30;52.10
51029;DHT22;37054;52.054;8.600;2022-11-15T05:35:57;18.30;52.10
51029;DHT22;37054;52.054;8.600;2022-11-15T05:38:02;18.30;52.00
51029;DHT22;37054;52.054;8.600;2022-11-15T05:40:28;18.30;52.00
51029;DHT22;37054;52.054;8.600;2022-11-15T05:42:56;18.30;52.00
51029;DHT22;37054;52.054;8.600;2022-11-15T05:45:22;18.30;52.00
51029;DHT22;37054;52.054;8.600;2022-11-15T05:47:47;18.30;52.00
51029;DHT22;37054;52.054;8.600;2022-11-15T05:50:14;18.40;51.90
51029;DHT22;37054;52.054;8.600;2022-11-15T05:52:41;18.40;51.90
51029;DHT22;37054;52.054;8.600;2022-11-15T05:55:07;18.40;51.90
51029;DHT22;37054;52.054;8.600;2022-11-15T05:57:33;18.40;51.90
51029;DHT22;37054;52.054;8.600;2022-11-15T05:59:58;18.40;51.90
51029;DHT22;37054;52.054;8.600;2022-11-15T06:02:24;18.40;51.90
51029;DHT22;37054;52.054;8.600;2022-11-15T06:04:51;18.40;51.80
51029;DHT22;37054;52.054;8.600;2022-11-15T06:07:16;18.40;51.90
51029;DHT22;37054;52.054;8.600;2022-11-15T06:09:42;18.40;51.80
51029;DHT22;37054;52.054;8.600;2022-11-15T06:12:07;18.40;51.80
51029;DHT22;37054;52.054;8.600;2022-11-15T06:14:33;18.40;51.90
51029;DHT22;37054;52.054;8.600;2022-11-15T06:16:58;18.50;51.90
51029;DHT22;37054;52.054;8.600;2022-11-15T06:19:27;18.50;51.80
51029;DHT22;37054;52.054;8.600;2022-11-15T06:21:58;18.50;51.80
51029;DHT22;37054;52.054;8.600;2022-11-15T06:24:23;18.50;51.80
51029;DHT22;37054;52.054;8.600;2022-11-15T06:26:49;18.50;51.70
51029;DHT22;37054;52.054;8.600;2022-11-15T06:29:15;18.60;51.70
51029;DHT22;37054;52.054;8.600;2022-11-15T06:31:40;18.60;51.70
51029;DHT22;37054;52.054;8.600;2022-11-15T06:34:06;18.70;51.70
51029;DHT22;37054;52.054;8.600;2022-11-15T06:36:33;18.60;51.60
51029;DHT22;37054;52.054;8.600;2022-11-15T06:38:59;18.70;51.60
51029;DHT22;37054;52.054;8.600;2022-11-15T06:41:24;18.70;51.50
51029;DHT22;37054;52.054;8.600;2022-11-15T06:43:50;18.70;51.40
51029;DHT22;37054;52.054;8.600;2022-11-15T06:46:16;18.70;51.50
51029;DHT22;37054;52.054;8.600;2022-11-15T06:48:41;18.70;51.50
51029;DHT22;37054;52.054;8.600;2022-11-15T06:51:10;18.70;51.40
51029;DHT22;37054;52.054;8.600;2022-11-15T06:53:35;18.70;51.40
51029;DHT22;37054;52.054;8.600;2022-11-15T06:56:04;18.70;51.30
51029;DHT22;37054;52.054;8.600;2022-11-15T06:58:30;18.70;51.40
51029;DHT22;37054;52.054;8.600;2022-11-15T07:01:14;18.80;51.50
51029;DHT22;37054;52.054;8.600;2022-11-15T07:03:40;19.00;51.70
51029;DHT22;37054;52.054;8.600;2022-11-15T07:06:06;19.10;51.50
51029;DHT22;37054;52.054;8.600;2022-11-15T07:08:32;19.10;51.00
51029;DHT22;37054;52.054;8.600;2022-11-15T07:10:58;19.20;50.90
51029;DHT22;37054;52.054;8.600;2022-11-15T07:13:25;19.30;51.00
51029;DHT22;37054;52.054;8.600;2022-11-15T07:15:51;19.40;51.00
51029;DHT22;37054;52.054;8.600;2022-11-15T07:18:16;19.50;50.30
51029;DHT22;37054;52.054;8.600;2022-11-15T07:20:42;19.60;50.10
51029;DHT22;37054;52.054;8.600;2022-11-15T07:23:08;19.60;49.80
51029;DHT22;37054;52.054;8.600;2022-11-15T07:25:34;19.70;49.70
51029;DHT22;37054;52.054;8.600;2022-11-15T07:27:59;19.80;49.70
51029;DHT22;37054;52.054;8.600;2022-11-15T07:30:25;20.00;50.10
51029;DHT22;37054;52.054;8.600;2022-11-15T07:32:52;20.40;50.20
51029;DHT22;37054;52.054;8.600;2022-11-15T07:35:17;20.70;49.10
51029;DHT22;37054;52.054;8.600;2022-11-15T07:37:43;21.20;48.50
51029;DHT22;37054;52.054;8.600;2022-11-15T07:40:09;21.60;47.80
51029;DHT22;37054;52.054;8.600;2022-11-15T07:42:34;21.90;46.70
51029;DHT22;37054;52.054;8.600;2022-11-15T07:45:18;22.30;45.70
51029;DHT22;37054;52.054;8.600;2022-11-15T07:47:47;22.40;44.50
51029;DHT22;37054;52.054;8.600;2022-11-15T07:50:13;22.40;43.60
51029;DHT22;37054;52.054;8.600;2022-11-15T07:52:40;22.30;43.20
51029;DHT22;37054;52.054;8.600;2022-11-15T07:55:05;22.10;43.20
51029;DHT22;37054;52.054;8.600;2022-11-15T07:57:31;21.90;43.40
51029;DHT22;37054;52.054;8.600;2022-11-15T07:59:57;21.80;43.70
51029;DHT22;37054;52.054;8.600;2022-11-15T08:02:23;21.70;43.80
51029;DHT22;37054;52.054;8.600;2022-11-15T08:04:49;21.50;44.10
51029;DHT22;37054;52.054;8.600;2022-11-15T08:07:14;21.40;44.30
51029;DHT22;37054;52.054;8.600;2022-11-15T08:09:40;21.30;44.50
51029;DHT22;37054;52.054;8.600;2022-11-15T08:12:06;21.30;44.60
51029;DHT22;37054;52.054;8.600;2022-11-15T08:14:31;21.30;44.90
51029;DHT22;37054;52.054;8.600;2022-11-15T08:16:57;21.50;45.20
51029;DHT22;37054;52.054;8.600;2022-11-15T08:19:23;21.70;45.10
51029;DHT22;37054;52.054;8.600;2022-11-15T08:21:49;21.80;44.40
51029;DHT22;37054;52.054;8.600;2022-11-15T08:24:15;22.20;44.50
51029;DHT22;37054;52.054;8.600;2022-11-15T08:26:41;22.50;43.90
51029;DHT22;37054;52.054;8.600;2022-11-15T08:29:06;22.80;43.30
51029;DHT22;37054;52.054;8.600;2022-11-15T08:31:35;23.00;42.60
51029;DHT22;37054;52.054;8.600;2022-11-15T08:34:02;23.40;42.50
51029;DHT22;37054;52.054;8.600;2022-11-15T08:36:28;23.70;41.90
51029;DHT22;37054;52.054;8.600;2022-11-15T08:38:53;23.90;41.40
51029;DHT22;37054;52.054;8.600;2022-11-15T08:41:30;24.10;40.60
51029;DHT22;37054;52.054;8.600;2022-11-15T08:43:56;24.20;40.10
51029;DHT22;37054;52.054;8.600;2022-11-15T08:46:24;24.40;40.10
51029;DHT22;37054;52.054;8.600;2022-11-15T08:48:51;24.60;39.50
51029;DHT22;37054;52.054;8.600;2022-11-15T08:51:16;24.70;39.40
51029;DHT22;37054;52.054;8.600;2022-11-15T08:53:42;24.70;39.00
51029;DHT22;37054;52.054;8.600;2022-11-15T08:56:09;24.70;38.20
51029;DHT22;37054;52.054;8.600;2022-11-15T08:58:35;24.50;37.90
51029;DHT22;37054;52.054;8.600;2022-11-15T09:01:01;24.60;38.10
51029;DHT22;37054;52.054;8.600;2022-11-15T09:03:27;24.60;38.10
51029;DHT22;37054;52.054;8.600;2022-11-15T09:05:54;24.70;38.00
51029;DHT22;37054;52.054;8.600;2022-11-15T09:08:19;24.70;37.70
51029;DHT22;37054;52.054;8.600;2022-11-15T09:10:45;24.70;37.80
51029;DHT22;37054;52.054;8.600;2022-11-15T09:13:11;24.80;37.70
51029;DHT22;37054;52.054;8.600;2022-11-15T09:15:37;24.80;37.50
51029;DHT22;37054;52.054;8.600;2022-11-15T09:18:03;24.90;37.30
51029;DHT22;37054;52.054;8.600;2022-11-15T09:20:28;25.10;37.50
51029;DHT22;37054;52.054;8.600;2022-11-15T09:22:54;25.20;36.70
51029;DHT22;37054;52.054;8.600;2022-11-15T09:25:20;25.20;36.50
51029;DHT22;37054;52.054;8.600;2022-11-15T09:27:46;25.20;36.40
51029;DHT22;37054;52.054;8.600;2022-11-15T09:30:11;25.20;36.10
51029;DHT22;37054;52.054;8.600;2022-11-15T09:32:37;25.20;36.40
51029;DHT22;37054;52.054;8.600;2022-11-15T09:35:03;25.30;35.90
51029;DHT22;37054;52.054;8.600;2022-11-15T09:37:28;25.30;35.80
51029;DHT22;37054;52.054;8.600;2022-11-15T09:39:56;25.30;36.00
51029;DHT22;37054;52.054;8.600;2022-11-15T09:49:52;25.00;35.40
51029;DHT22;37054;52.054;8.600;2022-11-15T09:52:18;24.90;35.50
51029;DHT22;37054;52.054;8.600;2022-11-15T09:54:46;24.90;35.60
51029;DHT22;37054;52.054;8.600;2022-11-15T09:57:14;25.00;35.90
51029;DHT22;37054;52.054;8.600;2022-11-15T10:00:28;25.00;35.70
51029;DHT22;37054;52.054;8.600;2022-11-15T10:02:50;25.00;35.50
51029;DHT22;37054;52.054;8.600;2022-11-15T10:05:20;24.80;35.30
51029;DHT22;37054;52.054;8.600;2022-11-15T10:13:13;24.70;35.40
51029;DHT22;37054;52.054;8.600;2022-11-15T10:15:41;24.70;35.20
51029;DHT22;37054;52.054;8.600;2022-11-15T10:18:31;24.80;35.10
51029;DHT22;37054;52.054;8.600;2022-11-15T10:20:56;24.90;34.90
51029;DHT22;37054;52.054;8.600;2022-11-15T10:23:23;24.70;34.50
51029;DHT22;37054;52.054;8.600;2022-11-15T10:26:00;24.80;34.50
51029;DHT22;37054;52.054;8.600;2022-11-15T10:28:27;24.70;34.40
51029;DHT22;37054;52.054;8.600;2022-11-15T10:30:53;24.70;34.20
51029;DHT22;37054;52.054;8.600;2022-11-15T10:33:35;24.60;34.10
51029;DHT22;37054;52.054;8.600;2022-11-15T10:41:15;24.60;34.00
51029;DHT22;37054;52.054;8.600;2022-11-15T10:43:41;24.70;33.70
51029;DHT22;37054;52.054;8.600;2022-11-15T10:46:20;24.70;33.60
51029;DHT22;37054;52.054;8.600;2022-11-15T10:48:45;24.80;33.40
51029;DHT22;37054;52.054;8.600;2022-11-15T10:51:22;24.90;33.40
51029;DHT22;37054;52.054;8.600;2022-11-15T10:53:53;25.00;33.10
51029;DHT22;37054;52.054;8.600;2022-11-15T10:56:20;25.10;32.70
51029;DHT22;37054;52.054;8.600;2022-11-15T10:58:53;25.10;32.30
51029;DHT22;37054;52.054;8.600;2022-11-15T11:01:21;25.00;32.00
51029;DHT22;37054;52.054;8.600;2022-11-15T11:04:06;25.10;32.10
51029;DHT22;37054;52.054;8.600;2022-11-15T11:06:45;24.90;31.90
51029;DHT22;37054;52.054;8.600;2022-11-15T11:09:21;25.00;32.10
51029;DHT22;37054;52.054;8.600;2022-11-15T11:11:47;25.10;32.20
51029;DHT22;37054;52.054;8.600;2022-11-15T11:14:23;25.20;32.20
51029;DHT22;37054;52.054;8.600;2022-11-15T11:16:54;25.40;32.60
51029;DHT22;37054;52.054;8.600;2022-11-15T11:19:30;25.50;32.20
51029;DHT22;37054;52.054;8.600;2022-11-15T11:22:18;25.50;32.10
51029;DHT22;37054;52.054;8.600;2022-11-15T11:24:53;25.40;31.90
51029;DHT22;37054;52.054;8.600;2022-11-15T11:48:02;25.40;32.80
51029;DHT22;37054;52.054;8.600;2022-11-15T11:50:30;25.40;32.90
51029;DHT22;37054;52.054;8.600;2022-11-15T11:57:52;25.00;32.20
51029;DHT22;37054;52.054;8.600;2022-11-15T12:00:19;24.80;32.50
51029;DHT22;37054;52.054;8.600;2022-11-15T12:05:28;24.20;33.20
51029;DHT22;37054;52.054;8.600;2022-11-15T12:08:18;23.70;33.60
51029;DHT22;37054;52.054;8.600;2022-11-15T12:10:45;23.30;34.00
51029;DHT22;37054;52.054;8.600;2022-11-15T12:13:13;23.00;34.60
51029;DHT22;37054;52.054;8.600;2022-11-15T12:15:42;22.90;35.00
51029;DHT22;37054;52.054;8.600;2022-11-15T12:18:09;22.70;35.30
51029;DHT22;37054;52.054;8.600;2022-11-15T12:20:39;22.60;35.70
51029;DHT22;37054;52.054;8.600;2022-11-15T12:23:06;22.30;36.00
51029;DHT22;37054;52.054;8.600;2022-11-15T12:25:49;22.20;36.20
51029;DHT22;37054;52.054;8.600;2022-11-15T12:28:18;22.20;36.40
51029;DHT22;37054;52.054;8.600;2022-11-15T12:33:28;22.00;36.70
51029;DHT22;37054;52.054;8.600;2022-11-15T12:35:59;21.80;36.90
51029;DHT22;37054;52.054;8.600;2022-11-15T12:41:14;21.80;37.10
51029;DHT22;37054;52.054;8.600;2022-11-15T12:43:43;21.70;37.30
51029;DHT22;37054;52.054;8.600;2022-11-15T12:46:18;21.70;37.40
51029;DHT22;37054;52.054;8.600;2022-11-15T12:48:46;21.70;37.40
51029;DHT22;37054;52.054;8.600;2022-11-15T12:51:13;21.60;37.50
51029;DHT22;37054;52.054;8.600;2022-11-15T12:53:38;21.60;37.60
51029;DHT22;37054;52.054;8.600;2022-11-15T13:04:07;21.40;37.60
51029;DHT22;37054;52.054;8.600;2022-11-15T13:06:38;21.30;37.80
51029;DHT22;37054;52.054;8.600;2022-11-15T13:09:49;21.30;37.90
51029;DHT22;37054;52.054;8.600;2022-11-15T13:11:49;21.30;38.00
51029;DHT22;37054;52.054;8.600;2022-11-15T13:14:50;21.30;38.10
51029;DHT22;37054;52.054;8.600;2022-11-15T13:19:43;21.20;38.20
51029;DHT22;37054;52.054;8.600;2022-11-15T13:22:10;21.20;38.30
51029;DHT22;37054;52.054;8.600;2022-11-15T13:25:02;21.20;38.50
51029;DHT22;37054;52.054;8.600;2022-11-15T13:27:28;21.20;38.50
51029;DHT22;37054;52.054;8.600;2022-11-15T13:29:54;21.30;38.60
51029;DHT22;37054;52.054;8.600;2022-11-15T13:32:19;21.20;38.50
51029;DHT22;37054;52.054;8.600;2022-11-15T13:34:46;21.30;38.40
51029;DHT22;37054;52.054;8.600;2022-11-15T13:37:27;21.20;38.10
51029;DHT22;37054;52.054;8.600;2022-11-15T13:39:53;21.30;38.10
51029;DHT22;37054;52.054;8.600;2022-11-15T13:42:20;21.30;38.00
51029;DHT22;37054;52.054;8.600;2022-11-15T13:44:59;21.30;38.10
51029;DHT22;37054;52.054;8.600;2022-11-15T13:47:25;21.40;38.00
51029;DHT22;37054;52.054;8.600;2022-11-15T13:49:58;21.30;38.00
51029;DHT22;37054;52.054;8.600;2022-11-15T13:52:25;21.30;38.40
51029;DHT22;37054;52.054;8.600;2022-11-15T13:55:09;21.30;38.80
51029;DHT22;37054;52.054;8.600;2022-11-15T14:00:03;21.20;40.30
51029;DHT22;37054;52.054;8.600;2022-11-15T14:02:33;21.10;40.40
51029;DHT22;37054;52.054;8.600;2022-11-15T14:05:05;21.00;40.70
51029;DHT22;37054;52.054;8.600;2022-11-15T14:07:37;21.00;41.00
51029;DHT22;37054;52.054;8.600;2022-11-15T14:13:03;20.80;41.50
51029;DHT22;37054;52.054;8.600;2022-11-15T14:17:54;20.70;41.80
51029;DHT22;37054;52.054;8.600;2022-11-15T14:22:56;20.60;41.90
51029;DHT22;37054;52.054;8.600;2022-11-15T14:25:23;20.50;41.90
51029;DHT22;37054;52.054;8.600;2022-11-15T14:28:10;20.50;41.90
51029;DHT22;37054;52.054;8.600;2022-11-15T14:30:36;20.40;41.90
51029;DHT22;37054;52.054;8.600;2022-11-15T14:33:01;20.30;41.90
51029;DHT22;37054;52.054;8.600;2022-11-15T14:35:28;20.30;41.80
51029;DHT22;37054;52.054;8.600;2022-11-15T14:37:53;20.20;41.80
51029;DHT22;37054;52.054;8.600;2022-11-15T14:40:20;20.20;41.80
51029;DHT22;37054;52.054;8.600;2022-11-15T14:42:47;20.10;41.80
51029;DHT22;37054;52.054;8.600;2022-11-15T14:45:13;20.10;41.80
51029;DHT22;37054;52.054;8.600;2022-11-15T14:47:40;20.00;41.80
51029;DHT22;37054;52.054;8.600;2022-11-15T14:50:05;20.00;41.70
51029;DHT22;37054;52.054;8.600;2022-11-15T14:52:32;20.00;41.70
51029;DHT22;37054;52.054;8.600;2022-11-15T14:55:02;19.80;41.70
51029;DHT22;37054;52.054;8.600;2022-11-15T14:57:28;19.80;41.80
51029;DHT22;37054;52.054;8.600;2022-11-15T14:59:53;19.80;41.80
51029;DHT22;37054;52.054;8.600;2022-11-15T15:02:20;19.70;41.90
51029;DHT22;37054;52.054;8.600;2022-11-15T15:04:46;19.60;41.90
51029;DHT22;37054;52.054;8.600;2022-11-15T15:07:12;19.50;42.00
51029;DHT22;37054;52.054;8.600;2022-11-15T15:09:38;19.40;42.10
51029;DHT22;37054;52.054;8.600;2022-11-15T15:12:04;19.30;42.30
51029;DHT22;37054;52.054;8.600;2022-11-15T15:14:31;19.20;42.60
51029;DHT22;37054;52.054;8.600;2022-11-15T15:16:57;19.10;42.80
51029;DHT22;37054;52.054;8.600;2022-11-15T15:19:23;19.00;42.90
51029;DHT22;37054;52.054;8.600;2022-11-15T15:21:49;19.00;43.20
51029;DHT22;37054;52.054;8.600;2022-11-15T15:24:14;19.00;43.40
51029;DHT22;37054;52.054;8.600;2022-11-15T15:26:40;19.00;43.60
51029;DHT22;37054;52.054;8.600;2022-11-15T15:29:06;19.00;43.70
51029;DHT22;37054;52.054;8.600;2022-11-15T15:31:34;19.00;43.90
51029;DHT22;37054;52.054;8.600;2022-11-15T15:34:00;19.10;44.00
51029;DHT22;37054;52.054;8.600;2022-11-15T15:36:25;19.10;43.90
51029;DHT22;37054;52.054;8.600;2022-11-15T15:38:51;19.20;43.90
51029;DHT22;37054;52.054;8.600;2022-11-15T15:41:17;19.20;43.90
51029;DHT22;37054;52.054;8.600;2022-11-15T15:43:44;19.20;43.90
51029;DHT22;37054;52.054;8.600;2022-11-15T15:46:10;19.30;43.90
51029;DHT22;37054;52.054;8.600;2022-11-15T15:48:36;19.30;43.80
51029;DHT22;37054;52.054;8.600;2022-11-15T15:51:04;19.30;43.70
51029;DHT22;37054;52.054;8.600;2022-11-15T15:53:30;19.40;43.70
51029;DHT22;37054;52.054;8.600;2022-11-15T15:55:56;19.40;43.60
51029;DHT22;37054;52.054;8.600;2022-11-15T15:58:22;19.40;43.60
51029;DHT22;37054;52.054;8.600;2022-11-15T16:00:48;19.40;43.50
51029;DHT22;37054;52.054;8.600;2022-11-15T16:03:14;19.50;43.30
51029;DHT22;37054;52.054;8.600;2022-11-15T16:05:39;19.50;43.20
51029;DHT22;37054;52.054;8.600;2022-11-15T16:08:05;19.50;43.20
51029;DHT22;37054;52.054;8.600;2022-11-15T16:10:32;19.50;43.10
51029;DHT22;37054;52.054;8.600;2022-11-15T16:12:58;19.50;43.00
51029;DHT22;37054;52.054;8.600;2022-11-15T16:15:25;19.60;43.00
51029;DHT22;37054;52.054;8.600;2022-11-15T16:17:52;19.60;42.90
51029;DHT22;37054;52.054;8.600;2022-11-15T16:20:29;19.60;42.90
51029;DHT22;37054;52.054;8.600;2022-11-15T16:22:55;19.60;42.80
51029;DHT22;37054;52.054;8.600;2022-11-15T16:25:21;19.50;42.90
51029;DHT22;37054;52.054;8.600;2022-11-15T16:27:47;19.50;42.90
51029;DHT22;37054;52.054;8.600;2022-11-15T16:30:16;19.40;43.00
51029;DHT22;37054;52.054;8.600;2022-11-15T16:32:42;19.40;43.00
51029;DHT22;37054;52.054;8.600;2022-11-15T16:35:11;19.30;43.00
51029;DHT22;37054;52.054;8.600;2022-11-15T16:37:40;19.30;43.20
51029;DHT22;37054;52.054;8.600;2022-11-15T16:42:50;19.30;43.40
51029;DHT22;37054;52.054;8.600;2022-11-15T16:45:16;19.30;43.50
51029;DHT22;37054;52.054;8.600;2022-11-15T16:47:42;19.30;43.50
51029;DHT22;37054;52.054;8.600;2022-11-15T16:50:15;19.20;43.60
51029;DHT22;37054;52.054;8.600;2022-11-15T16:52:43;19.20;43.60
51029;DHT22;37054;52.054;8.600;2022-11-15T16:55:09;19.10;43.60
51029;DHT22;37054;52.054;8.600;2022-11-15T16:57:35;19.10;43.80
51029;DHT22;37054;52.054;8.600;2022-11-15T17:00:02;19.00;43.90
51029;DHT22;37054;52.054;8.600;2022-11-15T17:02:28;19.00;43.90
51029;DHT22;37054;52.054;8.600;2022-11-15T17:04:54;19.00;44.10
51029;DHT22;37054;52.054;8.600;2022-11-15T17:07:19;18.90;44.10
51029;DHT22;37054;52.054;8.600;2022-11-15T17:09:46;18.90;44.20
51029;DHT22;37054;52.054;8.600;2022-11-15T17:12:12;18.80;44.20
51029;DHT22;37054;52.054;8.600;2022-11-15T17:14:38;18.80;44.30
51029;DHT22;37054;52.054;8.600;2022-11-15T17:17:04;18.70;44.40
51029;DHT22;37054;52.054;8.600;2022-11-15T17:19:31;18.70;44.50
51029;DHT22;37054;52.054;8.600;2022-11-15T17:21:57;18.70;44.80
51029;DHT22;37054;52.054;8.600;2022-11-15T17:24:24;18.70;44.90